KCNU/CNU METAR and TAF weather

Enter ICAO airport designator
Station Type Date Time Source
KCNU METAR 2018/07/21 11:52 UTC NOAA

KCNU 211152Z AUTO 08006KT 10SM CLR 22/21 A2998 RMK AO2 SLP138 70007 T02220206 10233 20211 50006


Station Type Date Time Source
KCNU Decoded METAR 2018/07/21 11:52 UTC NOAA

CHANUTE JOHNSON AIRPORT, KS, United States (KCNU) 37-40N 95-29W 297M
Jul 21, 2018 - 07:52 AM EDT / 2018.07.21 1152 UTC
Wind: from the E (080 degrees) at 7 MPH (6 KT):0
Visibility: 10 mile(s):0
Sky conditions: clear
Temperature: 72.0 F (22.2 C)
Dew Point: 69.1 F (20.6 C)
Relative Humidity: 90%
Pressure (altimeter): 29.98 in. Hg (1015 hPa)
Pressure tendency: 0.02 inches (0.6 hPa) higher than three ho

Station Type Date Time Source
KCNU TAF 2018/07/21 12:22 UTC NOAA

TAF KCNU 211120Z 2112/2212 05007KT P6SM SCT120
FM211700 02007KT P6SM SCT250
FM220200 VRB04KT P6SM SKC


Example: see airport list